createdAt,value
2023-02-17T00:02:27.699Z,7.99
2023-02-17T00:05:30.714Z,8.00
2023-02-17T00:08:33.767Z,8.02
2023-02-17T00:11:38.121Z,7.96
2023-02-17T00:14:41.614Z,7.89
2023-02-17T00:17:47.585Z,7.86
2023-02-17T00:20:51.165Z,7.75
2023-02-17T00:23:55.099Z,7.65
2023-02-17T00:26:59.657Z,7.60
2023-02-17T00:30:03.218Z,7.59
2023-02-17T00:33:06.716Z,7.56
2023-02-17T00:36:14.140Z,7.54
2023-02-17T00:39:18.697Z,7.48
2023-02-17T00:42:26.354Z,7.46
2023-02-17T00:45:29.497Z,7.44
2023-02-17T00:48:33.527Z,7.44
2023-02-17T00:51:36.628Z,7.43
2023-02-17T00:54:41.951Z,7.40
2023-02-17T00:57:47.529Z,7.44
2023-02-17T01:00:50.856Z,7.41
2023-02-17T01:03:54.096Z,7.44
2023-02-17T01:06:57.254Z,7.40
2023-02-17T01:10:00.429Z,7.36
2023-02-17T01:13:06.486Z,7.31
2023-02-17T01:16:19.033Z,7.34
2023-02-17T01:19:22.378Z,7.33
2023-02-17T01:22:26.892Z,7.35
2023-02-17T01:25:32.091Z,7.34
2023-02-17T01:28:36.859Z,7.27
2023-02-17T01:31:41.402Z,7.31
2023-02-17T01:34:48.938Z,7.32
2023-02-17T01:37:52.015Z,7.33
2023-02-17T01:40:55.757Z,7.31
2023-02-17T01:44:14.334Z,7.34
2023-02-17T01:47:17.743Z,7.37
2023-02-17T01:50:25.968Z,7.37
2023-02-17T01:53:37.205Z,7.37
2023-02-17T01:56:44.716Z,7.36
2023-02-17T01:59:52.862Z,7.42
2023-02-17T02:02:59.093Z,7.45
2023-02-17T02:06:05.879Z,7.45
2023-02-17T02:09:17.991Z,7.38
2023-02-17T02:12:23.906Z,7.38
2023-02-17T02:15:35.392Z,7.33
2023-02-17T02:18:50.345Z,7.32
2023-02-17T02:23:08.819Z,7.29
2023-02-17T02:26:54.632Z,7.24
2023-02-17T02:30:29.593Z,7.20
2023-02-17T02:33:41.616Z,7.21
2023-02-17T02:36:50.415Z,7.17
2023-02-17T02:39:56.925Z,7.16
2023-02-17T02:43:06.217Z,7.12
2023-02-17T02:46:09.889Z,7.14
2023-02-17T02:49:16.624Z,7.15
2023-02-17T02:52:31.176Z,7.09
2023-02-17T02:55:52.262Z,7.12
2023-02-17T02:59:08.062Z,7.10
2023-02-17T03:02:20.632Z,7.09
2023-02-17T03:05:33.815Z,7.10
2023-02-17T03:08:43.887Z,7.07
2023-02-17T03:11:48.782Z,7.02
2023-02-17T03:14:58.358Z,7.01
2023-02-17T03:18:03.736Z,6.99
2023-02-17T03:21:16.114Z,6.99
2023-02-17T03:24:20.030Z,6.99
2023-02-17T03:27:23.606Z,6.98
2023-02-17T03:30:26.749Z,7.02
2023-02-17T03:33:30.461Z,7.06
2023-02-17T03:36:38.617Z,7.06
2023-02-17T03:39:41.763Z,7.05
2023-02-17T03:42:45.246Z,7.10
2023-02-17T03:45:48.404Z,7.13
2023-02-17T03:48:54.305Z,7.12
2023-02-17T03:51:59.513Z,7.10
2023-02-17T03:55:02.832Z,7.09
2023-02-17T03:58:06.051Z,7.11
2023-02-17T04:01:12.257Z,7.09
2023-02-17T04:04:15.426Z,7.11
2023-02-17T04:07:20.142Z,7.13
2023-02-17T04:10:23.321Z,7.14
2023-02-17T04:13:26.884Z,7.16
2023-02-17T04:16:30.164Z,7.17
2023-02-17T04:19:36.957Z,7.19
2023-02-17T04:22:58.010Z,7.18
2023-02-17T04:26:01.705Z,7.16
2023-02-17T04:29:07.188Z,7.19
2023-02-17T04:32:10.490Z,7.18
2023-02-17T04:35:15.752Z,7.17
2023-02-17T04:38:20.689Z,7.18
2023-02-17T04:41:24.204Z,7.22
2023-02-17T04:44:27.743Z,7.21
2023-02-17T04:47:31.014Z,7.19
2023-02-17T04:50:34.290Z,7.21
2023-02-17T04:53:38.825Z,7.23
2023-02-17T04:56:42.445Z,7.24
2023-02-17T04:59:45.952Z,7.26
2023-02-17T05:02:49.516Z,7.28
2023-02-17T05:05:55.713Z,7.30
2023-02-17T05:09:01.815Z,7.29
2023-02-17T05:12:07.840Z,7.30
2023-02-17T05:15:13.138Z,7.29
2023-02-17T05:18:16.462Z,7.27
2023-02-17T05:21:20.996Z,7.25
2023-02-17T05:24:25.544Z,7.27
2023-02-17T05:27:28.878Z,7.25
2023-02-17T05:30:32.581Z,7.25
2023-02-17T05:33:36.292Z,7.28
2023-02-17T05:36:42.389Z,7.29
2023-02-17T05:39:47.372Z,7.32
2023-02-17T05:42:50.818Z,7.33
2023-02-17T05:45:54.455Z,7.36
2023-02-17T05:48:57.894Z,7.35
2023-02-17T05:52:05.309Z,7.36
2023-02-17T05:55:17.955Z,7.37
2023-02-17T05:58:21.144Z,7.37
2023-02-17T06:01:24.214Z,7.40
2023-02-17T06:04:29.127Z,7.39
2023-02-17T06:07:32.669Z,7.36
2023-02-17T06:10:37.209Z,7.38
2023-02-17T06:13:42.593Z,7.38
2023-02-17T06:16:45.806Z,7.43
2023-02-17T06:19:49.854Z,7.40
2023-02-17T06:22:53.072Z,7.39
2023-02-17T06:25:57.723Z,7.40
2023-02-17T06:29:01.015Z,7.44
2023-02-17T06:32:04.445Z,7.44
2023-02-17T06:35:08.540Z,7.47
2023-02-17T06:38:11.853Z,7.48
2023-02-17T06:41:16.507Z,7.53
2023-02-17T06:44:20.198Z,7.55
2023-02-17T06:47:23.434Z,7.54
2023-02-17T06:50:26.709Z,7.54
2023-02-17T06:53:30.133Z,7.59
2023-02-17T06:56:34.762Z,7.63
2023-02-17T06:59:38.031Z,7.68
2023-02-17T07:02:41.689Z,7.71
2023-02-17T07:05:44.991Z,7.72
2023-02-17T07:08:48.331Z,7.74
2023-02-17T07:11:52.908Z,7.80
2023-02-17T07:14:56.177Z,7.84
2023-02-17T07:18:00.231Z,7.87
2023-02-17T07:21:03.343Z,7.91
2023-02-17T07:24:06.990Z,7.94
2023-02-17T07:27:11.933Z,7.97
2023-02-17T07:30:15.791Z,8.03
2023-02-17T07:33:24.166Z,8.09
2023-02-17T07:36:27.332Z,8.14
2023-02-17T07:39:30.837Z,8.19
2023-02-17T07:42:35.287Z,8.24
2023-02-17T07:45:39.548Z,8.26
2023-02-17T07:48:42.927Z,8.29
2023-02-17T07:51:50.252Z,8.36
2023-02-17T07:54:59.431Z,8.39
2023-02-17T07:58:03.940Z,8.41
2023-02-17T08:01:10.022Z,8.47
2023-02-17T08:04:13.255Z,8.52
2023-02-17T08:07:16.884Z,8.55
2023-02-17T08:10:40.845Z,8.59
2023-02-17T08:13:46.191Z,8.59
2023-02-17T08:16:49.383Z,8.65
2023-02-17T08:19:53.059Z,8.68
2023-02-17T08:22:56.137Z,8.70
2023-02-17T08:25:59.639Z,8.72
2023-02-17T08:29:05.078Z,8.74
2023-02-17T08:32:08.826Z,8.79
2023-02-17T08:35:12.097Z,8.81
2023-02-17T08:38:16.345Z,8.82
2023-02-17T08:41:23.137Z,8.85
2023-02-17T08:44:27.837Z,8.87
2023-02-17T08:47:31.069Z,8.84
2023-02-17T08:50:34.818Z,8.84
2023-02-17T08:53:38.373Z,8.88
2023-02-17T08:56:42.566Z,8.90
2023-02-17T08:59:48.209Z,8.92
2023-02-17T09:03:17.349Z,8.93
2023-02-17T09:06:28.253Z,8.92
2023-02-17T09:09:39.894Z,8.92
2023-02-17T09:12:44.147Z,8.95
2023-02-17T09:15:50.097Z,8.94
2023-02-17T09:18:54.295Z,8.97
2023-02-17T09:22:03.541Z,8.98
2023-02-17T09:25:08.412Z,8.98
2023-02-17T09:28:12.204Z,8.95
2023-02-17T09:31:36.820Z,8.98
2023-02-17T09:34:53.555Z,8.99
2023-02-17T09:38:14.878Z,9.04
2023-02-17T09:41:36.192Z,9.04
2023-02-17T09:50:43.948Z,9.06
2023-02-17T09:53:59.961Z,9.05
2023-02-17T09:57:05.169Z,9.04
2023-02-17T10:00:17.562Z,9.05
2023-02-17T10:03:31.280Z,9.07
2023-02-17T10:06:42.197Z,9.07
2023-02-17T10:09:49.520Z,9.09
2023-02-17T10:12:58.849Z,9.09
2023-02-17T10:16:08.509Z,9.09
2023-02-17T10:19:21.472Z,9.11
2023-02-17T10:22:37.268Z,9.12
2023-02-17T10:25:59.656Z,9.09
2023-02-17T10:29:16.556Z,9.10
2023-02-17T10:32:25.799Z,9.11
2023-02-17T10:35:52.503Z,9.12
2023-02-17T10:39:04.858Z,9.14
2023-02-17T10:42:17.714Z,9.14
2023-02-17T10:45:30.144Z,9.18
2023-02-17T10:48:40.653Z,9.20
2023-02-17T10:51:46.966Z,9.24
2023-02-17T10:54:57.709Z,9.28
2023-02-17T10:58:08.103Z,9.30
2023-02-17T11:01:11.923Z,9.33
2023-02-17T11:04:18.656Z,9.37
2023-02-17T11:07:36.430Z,9.41
2023-02-17T11:10:43.447Z,9.43
2023-02-17T11:14:08.620Z,9.45
2023-02-17T11:17:22.925Z,9.53
2023-02-17T11:20:37.134Z,9.56
2023-02-17T11:23:50.966Z,9.59
2023-02-17T11:27:06.885Z,9.63
2023-02-17T11:30:18.616Z,9.64
2023-02-17T11:33:26.005Z,9.69
2023-02-17T11:36:32.284Z,9.75
2023-02-17T11:39:41.096Z,9.80
2023-02-17T11:42:45.442Z,9.84
2023-02-17T11:46:00.843Z,9.90
2023-02-17T11:49:45.077Z,9.95
2023-02-17T11:53:10.236Z,10.01
2023-02-17T11:56:18.274Z,10.01
2023-02-17T11:59:50.029Z,10.11
2023-02-17T12:03:37.171Z,10.17
2023-02-17T12:08:02.359Z,10.21
2023-02-17T12:11:21.580Z,10.28
2023-02-17T12:14:50.909Z,10.41
2023-02-17T12:18:07.064Z,10.43
2023-02-17T12:21:23.822Z,10.45
2023-02-17T12:24:46.581Z,10.58
2023-02-17T12:28:15.477Z,10.69
2023-02-17T12:31:48.657Z,10.76
2023-02-17T12:35:01.429Z,10.82
2023-02-17T12:38:18.052Z,10.91
2023-02-17T12:41:27.857Z,10.98
2023-02-17T12:44:42.685Z,11.06
2023-02-17T12:47:56.173Z,11.14
2023-02-17T12:51:07.013Z,11.24
2023-02-17T12:54:19.959Z,11.37
2023-02-17T12:57:26.628Z,11.39
2023-02-17T13:00:35.715Z,11.48
2023-02-17T13:03:42.162Z,11.48
2023-02-17T13:06:53.115Z,11.53
2023-02-17T13:10:00.740Z,11.55
2023-02-17T13:13:07.676Z,11.54
2023-02-17T13:16:13.128Z,11.57
2023-02-17T13:19:29.199Z,11.63
2023-02-17T13:33:53.942Z,11.74
2023-02-17T13:37:16.392Z,11.84
2023-02-17T13:40:44.083Z,11.93
2023-02-17T13:43:48.279Z,11.96
2023-02-17T13:47:00.178Z,12.02
2023-02-17T13:50:07.054Z,12.07
2023-02-17T13:53:36.020Z,12.09
2023-02-17T13:56:44.111Z,12.19
2023-02-17T13:59:47.466Z,12.22
2023-02-17T14:02:54.872Z,12.24
2023-02-17T14:06:05.725Z,12.28
2023-02-17T14:09:46.247Z,12.31
2023-02-17T14:13:13.339Z,12.43
2023-02-17T14:16:36.907Z,12.37
2023-02-17T14:20:12.503Z,12.49
2023-02-17T14:23:16.138Z,12.49
2023-02-17T14:26:38.459Z,12.55
2023-02-17T14:29:52.431Z,12.57
2023-02-17T14:33:23.449Z,12.61
2023-02-17T14:36:42.853Z,12.56
2023-02-17T14:39:53.370Z,12.60
2023-02-17T14:43:32.552Z,12.52
2023-02-17T14:46:54.917Z,12.58
2023-02-17T14:50:25.620Z,12.58
2023-02-17T14:53:53.943Z,12.40
2023-02-17T14:57:11.691Z,12.22
2023-02-17T15:00:25.269Z,12.00
2023-02-17T15:03:37.804Z,11.86
2023-02-17T15:06:55.667Z,11.78
2023-02-17T15:10:36.916Z,11.74
2023-02-17T15:14:01.846Z,11.66
2023-02-17T15:24:45.807Z,11.50
2023-02-17T15:27:55.523Z,11.45
2023-02-17T15:31:00.867Z,11.42
2023-02-17T15:34:20.559Z,11.39
2023-02-17T15:37:27.374Z,11.35
2023-02-17T15:40:49.200Z,11.34
2023-02-17T15:44:09.497Z,11.33
2023-02-17T15:47:26.227Z,11.26
2023-02-17T15:50:46.419Z,11.27
2023-02-17T15:53:53.640Z,11.29
2023-02-17T15:56:59.058Z,11.27
2023-02-17T16:00:11.301Z,11.27
2023-02-17T16:03:26.351Z,11.29
2023-02-17T16:06:43.052Z,11.32
2023-02-17T16:09:54.442Z,11.35
2023-02-17T16:13:07.036Z,11.39
2023-02-17T16:16:19.591Z,11.38
2023-02-17T16:19:28.456Z,11.44
2023-02-17T16:22:33.586Z,11.42
2023-02-17T16:25:39.780Z,11.49
2023-02-17T16:28:48.999Z,11.59
2023-02-17T16:32:01.452Z,11.56
2023-02-17T16:35:18.463Z,11.65
2023-02-17T16:38:31.110Z,11.55
2023-02-17T16:41:34.533Z,11.57
2023-02-17T16:44:42.847Z,11.54
2023-02-17T16:47:53.034Z,11.54
2023-02-17T16:50:57.111Z,11.59
2023-02-17T16:54:09.947Z,11.79
2023-02-17T16:57:19.587Z,11.91
2023-02-17T17:00:31.342Z,11.96
2023-02-17T17:03:36.917Z,11.88
2023-02-17T17:06:50.689Z,11.96
2023-02-17T17:10:15.202Z,11.88
2023-02-17T17:13:20.330Z,12.01
2023-02-17T17:16:28.243Z,11.95
2023-02-17T17:19:32.190Z,11.85
2023-02-17T17:22:36.361Z,11.84
2023-02-17T17:25:51.473Z,11.86
2023-02-17T17:33:20.694Z,11.78
2023-02-17T17:36:38.179Z,11.73
2023-02-17T17:39:46.635Z,11.76
2023-02-17T17:42:57.984Z,11.82
2023-02-17T17:46:20.956Z,11.89
2023-02-17T17:49:28.746Z,11.84
2023-02-17T17:52:33.505Z,11.85
2023-02-17T17:55:56.900Z,11.92
2023-02-17T17:59:15.297Z,11.88
2023-02-17T18:02:23.378Z,11.92
2023-02-17T18:05:52.490Z,11.70
2023-02-17T18:09:31.752Z,11.42
2023-02-17T18:12:52.315Z,11.16
2023-02-17T18:16:19.123Z,10.90
2023-02-17T18:19:36.464Z,10.63
2023-02-17T18:22:40.525Z,10.50
2023-02-17T18:26:06.706Z,10.78
2023-02-17T18:29:15.654Z,10.70
2023-02-17T18:32:31.203Z,10.75
2023-02-17T18:35:47.309Z,10.73
2023-02-17T18:38:57.987Z,10.66
2023-02-17T18:42:11.737Z,10.58
2023-02-17T18:45:30.664Z,10.65
2023-02-17T18:49:02.752Z,10.64
2023-02-17T18:52:15.026Z,10.64
2023-02-17T18:55:41.215Z,10.62
2023-02-17T18:58:48.326Z,10.68
2023-02-17T19:02:09.118Z,10.66
2023-02-17T19:05:40.421Z,10.64
2023-02-17T19:08:56.894Z,10.58
2023-02-17T19:12:21.453Z,10.50
2023-02-17T19:15:37.997Z,10.53
2023-02-17T19:18:58.959Z,10.45
2023-02-17T19:22:17.219Z,10.28
2023-02-17T19:25:26.576Z,10.17
2023-02-17T19:28:34.163Z,10.08
2023-02-17T19:31:49.682Z,10.04
2023-02-17T19:35:05.088Z,10.00
2023-02-17T19:38:15.149Z,9.93
2023-02-17T19:41:36.054Z,9.89
2023-02-17T19:44:49.547Z,9.76
2023-02-17T19:48:01.864Z,9.74
2023-02-17T19:51:37.626Z,9.69
2023-02-17T19:55:18.412Z,9.67
2023-02-17T19:58:38.537Z,9.60
2023-02-17T20:06:36.895Z,9.34
2023-02-17T20:09:56.326Z,9.33
2023-02-17T20:13:05.936Z,9.36
2023-02-17T20:16:22.029Z,9.27
2023-02-17T20:19:32.159Z,9.30
2023-02-17T20:22:48.847Z,9.22
2023-02-17T20:26:13.718Z,9.13
2023-02-17T20:29:26.353Z,9.07
2023-02-17T20:32:40.208Z,9.03
2023-02-17T20:36:01.802Z,8.89
2023-02-17T20:39:22.976Z,8.87
2023-02-17T20:42:49.783Z,8.86
2023-02-17T20:46:02.781Z,8.79
2023-02-17T20:49:23.206Z,8.86
2023-02-17T20:52:29.082Z,8.71
2023-02-17T20:55:40.643Z,8.78
2023-02-17T20:58:46.465Z,8.76
2023-02-17T21:05:16.797Z,8.63
2023-02-17T21:08:22.900Z,8.59
2023-02-17T21:11:41.124Z,8.49
2023-02-17T21:14:54.424Z,8.52
2023-02-17T21:18:02.219Z,8.58
2023-02-17T21:21:18.676Z,8.53
2023-02-17T21:24:37.485Z,8.48
2023-02-17T21:28:06.548Z,8.45
2023-02-17T21:31:27.333Z,8.36
2023-02-17T21:34:51.717Z,8.33
2023-02-17T21:38:36.238Z,8.29
2023-02-17T21:46:18.431Z,8.15
2023-02-17T21:49:43.152Z,8.17
2023-02-17T21:54:08.389Z,8.09
2023-02-17T21:57:38.076Z,8.13
2023-02-17T22:04:11.998Z,8.10
2023-02-17T22:07:23.958Z,8.10
2023-02-17T22:11:33.389Z,8.12
2023-02-17T22:15:06.526Z,8.10
2023-02-17T22:18:36.710Z,8.15
2023-02-17T22:22:00.800Z,8.03
2023-02-17T22:25:08.801Z,8.08
2023-02-17T22:28:24.494Z,8.01
2023-02-17T22:32:13.268Z,7.96
2023-02-17T22:35:22.446Z,7.92
2023-02-17T22:38:26.677Z,7.85
2023-02-17T22:41:32.437Z,7.87
2023-02-17T22:44:37.617Z,7.82
2023-02-17T22:47:40.943Z,7.80
2023-02-17T22:50:44.221Z,7.84
2023-02-17T23:01:55.432Z,7.67
2023-02-17T23:04:35.795Z,7.70
2023-02-17T23:07:52.964Z,7.63
2023-02-17T23:11:10.618Z,7.61
2023-02-17T23:14:20.656Z,7.59
2023-02-17T23:17:28.491Z,7.56
2023-02-17T23:20:39.965Z,7.56
2023-02-17T23:24:20.323Z,7.46
2023-02-17T23:27:49.235Z,7.47
2023-02-17T23:30:54.268Z,7.44
2023-02-17T23:34:00.934Z,7.40
2023-02-17T23:40:35.351Z,7.38
2023-02-17T23:44:04.508Z,7.39
2023-02-17T23:47:17.639Z,7.32
2023-02-17T23:50:24.106Z,7.29
2023-02-17T23:53:45.573Z,7.30
2023-02-17T23:56:53.638Z,7.27
